Questo sito fa uso di cookie per migliorare l’esperienza di navigazione degli utenti e per raccogliere informazioni sull’utilizzo del sito stesso. Proseguendo nella navigazione si accetta l’uso dei cookie; in caso contrario è possibile abbandonare il sito.

[source: ADDS]
METAR
LIPA 220955Z 05008KT 9999 FEW020 FEW040TCU 29/22 Q1014 RMK SCT VIS MIN 9999 WIND THR05 06010KT WIND THR23 08008KT A2995 BLU =
LIPB 220950Z 00000KT 9999 FEW030 25/18 Q1015 =
LIPC 220955Z 33004KT CAVOK 31/20 Q1013 RMK SKC VIS MIN 9999 WIND THR11 30004KT WIND THR29 32005KT BLU =
LIPE 221020Z 34007KT 300V030 CAVOK 30/16 Q1015 =
LIPF 220955Z 27006KT CAVOK 33/24 Q1013 RMK SKC VIS MIN 9999 =
LIPH 221020Z 12005KT 060V190 9999 FEW040 31/19 Q1013 =
LIPL 220955Z /////KT CAVOK 28/20 Q1013 RMK SKC VIS MIN 9999 WIND THR31 22003KT BLU =
LIPU 220600Z VRB03KT CAVOK 24/19 Q1012 =
LIPO 220950Z 24004KT CAVOK 28/18 Q1014 =
LIPQ 221020Z 19005KT 140V230 CAVOK 30/17 Q1013 =
LIPR 221015Z 02008KT 9999 FEW040 31/20 Q1013 =
LIPS 220955Z 08007KT CAVOK 30/21 Q1013 RMK SKC VIS MIN 9999 WIND THR26 07006KT WIND THR08 06007KT BLU =
LIPU 220600Z VRB03KT CAVOK 24/19 Q1012 =
LIPX 221020Z 19003KT 090V240 CAVOK 30/15 Q1014 =
LIPY 220950Z 30008KT 250V330 CAVOK 33/13 Q1013 =
LIPZ 221020Z 15007KT 120V180 CAVOK 30/21 Q1013 NOSIG =
LIVC 220955Z 21005KT 9999 BKN001 15/10 Q1025 RMK BKN MON CLD SCT VAL NIL VIS MIN 9999 =
LIVD 220955Z /////KT 3000 FEW025TCU 18/15 Q1021 RMK BKN SCT070 VIS MIN 3000 =
LIVE 220955Z 27003KT 9999 SCT030 17/09 Q1020 RMK SCT VIS MIN 9999 =
LIVF 220955Z 23012KT 9999 FEW034 30/18 Q1016 RMK FEW MON LIB VAL NIL VIS MIN 9999 =
LIVO 220955Z 27003KT 9999 SCT030 24/16 Q1016 RMK BKN BKN200 VIS MIN 9999 =
LIVP 220955Z 18009KT 9999 FEW000 13/10 Q1022 RMK SCT MON LIB VAL NIL VIS MIN 9999 =
LIVR 220955Z 13007KT 9999 BKN025 15/08 Q1023 RMK BKN MON CLD SCT VIS MIN 9999 =
LIVT 220955Z 25004KT CAVOK 30/23 Q1013 RMK SKC QUK 1 QUL 0 VIS MAR 20 KM VIS MIN 9999 =
LIMC 221020Z VRB03KT 9999 FEW050 27/16 Q1015 NOSIG =
LIME 221020Z 19004KT 140V240 CAVOK 28/17 Q1015 NOSIG =
LIMF 221020Z 17003KT 110V230 CAVOK 26/17 Q1015 =
LIMG 220950Z 09010KT CAVOK 28/19 Q1015 =
LIMH 220955Z /////KT 9999 BKN010 04/M03 Q1029 RMK BKN MON CLD SCT VAL S FOSCHIA VIS MIN 9999 =
LIMJ 221020Z 16005KT 130V200 CAVOK 27/21 Q1015 =
LIMK 220955Z 00000KT CAVOK 21/20 Q1017 RMK SKC VAL NIL VIS MIN 9999 =
LIML 221020Z 16004KT 090V230 9999 FEW020 29/16 Q1014 NOSIG =
LIMU 220955Z 03010KT 9999 FEW026 28/22 Q1015 RMK BKN BKN200 QUK 3 QUL 1 SE VIS MAR 30 KM VIS MIN 9999 =
LIMV 220955Z /////KT 9999 SCT008 26/16 Q1016 RMK SCT MON LIB VAL NIL VIS MIN 9999 =
LIMY 220955Z 05006KT 350V090 CAVOK 23/18 Q1016 RMK SCT SCT200 VAL FOSCHIA VIS MIN 9999 =
TAF
TAF LIPA 220800Z 2209/2218 06008KT 9999 FEW050 =
TAF LIPB 220500Z 2206/2306 VRB05KT 9999 SCT030 TEMPO 2212/2218 TSRA =
TAF LIPC 220800Z 2209/2218 24003KT CAVOK BECMG 2209/2211 10010KT =
TAF LIPE 220500Z 2206/2306 VRB05KT CAVOK =
TAF LIPH 220500Z 2206/2306 VRB05KT 9999 SCT040 =
TAF LIPL 220800Z 2209/2218 28005KT 9999 SCT060 =
TAF LIPO 220500Z 2206/2306 29006KT 9999 SCT050 PROB40 TEMPO 2221/2224 4000 TSRA =
TAF LIPQ 220500Z 2206/2306 VRB05KT 9999 SCT030 =
TAF LIPR 220800Z 2209/2218 25003KT CAVOK BECMG 2209/2211 08010KT =
TAF LIPS 220800Z 2209/2218 08008KT 9999 FEW030 =
TAF LIPX 220800Z 2209/2218 VRB05KT 9999 SCT070 =
TAF LIPY 220500Z 2206/2306 VRB05KT CAVOK BECMG 2208/2210 08010KT BECMG 2216/2219 VRB05KT =
TAF LIPZ 220500Z 2206/2312 03008KT CAVOK BECMG 2209/2212 16010KT BECMG 2218/2220 VRB05KT BECMG 2308/2310 16010KT =
TAF LIMC 220500Z 2206/2312 VRB05KT 9999 SCT060 TEMPO 2220/2306 4000 TSRA =
TAF LIME 220500Z 2206/2306 VRB05KT 9999 SCT050 TEMPO 2221/2304 4000 TSRA =
TAF LIMF 220500Z 2206/2306 VRB05KT 9999 SCT060 PROB40 TEMPO 2218/2224 SHRA =
TAF LIMJ 220500Z 2206/2306 VRB05KT 9999 SCT025 PROB40 TEMPO 2206/2210 4000 TSRA =
TAF LIML 220500Z 2206/2306 VRB05KT 9999 SCT060 TEMPO 2221/2303 4000 TSRA =
SR / SS: 03:46 / 18:51 UTC (Effemeridi Aeroporto di Padova - LIPU 2017-07-22)

Immagini e previsioni meteo non aeronautiche

 

 

Immagini dal Radar Meteorologico del sito ARPAV. Orario UTC.

 

Immagine dal sito Meteo Sat Online

 

Legenda codici ICAO del nord Italia

 

In ordine di codice   In ordine di località
LIMC
Milano / Malpensa LIMG Albenga
LIME Bergamo / Orio Al Serio LIPA Aviano
LIMF Torino / Caselle LIME Bergamo / Orio Al Serio
LIMG Albenga LIPE Bologna / Borgo Panigale
LIMH Pian Rosa LIPB Bolzano
LIMJ Genova / Sestri LIPL Brescia / Ghedi
LIMK Torino / Bric Della Croce LIPO Brescia / Montichiari
LIML Milano / Linate LIMU Capo Mele
LIMN Novara / Cameri LIPC Cervia
LIMO Monte Bisbino LIVD Dobbiaco
LIMS Piacenza LIPP Dova Area Control Center
LIMT Passo Della Cisa LIPY Falconara
LIMU Capo Mele LIPF Ferrara
LIMV Passo Dei Giovi LIPK Forli
LIMY Monte Malanotte LIVF Frontone
LIPA Aviano LIMJ Genova / Sestri
LIPB Bolzano LIML Milano / Linate
LIPC Cervia
LIMC
Milano / Malpensa
LIPD Udine / Campoformido LIMO Monte Bisbino
LIPE Bologna / Borgo Panigale LIVC Monte Cimone
LIPF Ferrara LIMY Monte Malanotte
LIPH Treviso / S. Angelo LIMN Novara / Cameri
LIPI Udine / Rivolto LIPU Padova
LIPK Forli LIVP Paganella
LIPL Brescia / Ghedi LIMV Passo Dei Giovi
LIPO Brescia / Montichiari LIMT Passo Della Cisa
LIPP Dova Area Control Center LIVR Passo Rolle
LIPQ Ronchi Dei Legionari LIMS Piacenza
LIPR Rimini LIMH Pian Rosa
LIPS Treviso / Istrana LIVM Punta Marina
LIPT Vicenza LIVE Resia Pass
LIPU Padova LIPR Rimini
LIPX Verona / Villafranca LIPQ Ronchi Dei Legionari
LIPY Falconara LIVO Tarvisio
LIPZ Venezia / Tessera LIMK Torino / Bric Della Croce
LIVC Monte Cimone LIMF Torino / Caselle
LIVD Dobbiaco LIPS Treviso / Istrana
LIVE Resia Pass LIPH Treviso / S. Angelo
LIVF Frontone LIVT
Trieste
LIVM Punta Marina LIPD Udine / Campoformido
LIVO Tarvisio LIPI Udine / Rivolto
LIVP Paganella LIPZ Venezia / Tessera
LIVR Passo Rolle LIPX Verona / Villafranca
LIVT Trieste LIPT Vicenza

 

 

 

 

 

 

 

 

 

 

 

 

 

 

 

 

 

 

 

 

 

 

 

 

 

 

 

 

 

 

 

 

 

 

 

 

 

 

 

 

 

 

 

 

 

 

 

 

 

 

 

 

 

 

 

 

 

 

 

 

L'Aeroclub di Padova si limita a riportare informazioni fornite da terze parti, e non ha quindi alcuna responsabilità sul contenuto. Per la pianificazione dei propri voli si raccomanda l'utilizzo delle fonti ufficiali.

Copyright 2011. Free joomla templates | © Aeroclub Padova - Scuola di Volo, Ditta di manutenzione, CAMO Via Sorio, 89 - 35141 Padova Tel. 049 8718599 Fax 049 8717699 info@aeroclubpadova.it